KELY

Ely Airport

Airport
ICAO code
KELY
IATA Code
ELY
Summary
ICAO Region
NAM
ICAO Territory
Location

Ely, Nevada

Serving
Ely
Elevation
6259 ft
Coordinates
39° 17' 58" N , 114° 50' 5" W
KCC
Airport CFIT
Altimeter Temperature Error Correction
Airport RE
Hot and High Operations
Metar
KELY 250253Z AUTO 25006KT 10SM OVC095 15/M03 A2982 RMK AO2 SLP033 T01501033 55006

Ely Airport (Yelland Field) is a public use airport located 3 nm northeast of Ely, in White Pine County, Nevada, USA.

Airport map

Aerial View

SKYbrary Partners:

Safety knowledge contributed by: